createdAt,value
2018-02-23T00:00:22.643Z,37.67
2018-02-23T00:01:11.693Z,38.50
2018-02-23T00:02:01.029Z,37.80
2018-02-23T00:02:50.098Z,37.72
2018-02-23T00:03:39.150Z,42.40
2018-02-23T00:04:28.328Z,40.47
2018-02-23T00:05:17.393Z,43.67
2018-02-23T00:06:06.441Z,36.58
2018-02-23T00:06:55.528Z,43.28
2018-02-23T00:07:47.450Z,42.15
2018-02-23T00:08:36.509Z,51.05
2018-02-23T00:09:25.595Z,46.97
2018-02-23T00:10:14.718Z,46.35
2018-02-23T00:11:03.759Z,47.60
2018-02-23T00:11:52.869Z,46.72
2018-02-23T00:12:41.981Z,46.95
2018-02-23T00:13:31.024Z,43.30
2018-02-23T00:14:20.093Z,45.42
2018-02-23T00:15:09.176Z,45.55
2018-02-23T00:15:58.252Z,45.67
2018-02-23T00:16:47.289Z,45.60
2018-02-23T00:17:36.330Z,47.55
2018-02-23T00:18:25.381Z,44.95
2018-02-23T00:19:14.427Z,45.70
2018-02-23T00:20:03.522Z,46.53
2018-02-23T00:20:52.568Z,41.95
2018-02-23T00:21:41.962Z,46.20
2018-02-23T00:22:42.268Z,42.65
2018-02-23T00:23:31.315Z,43.30
2018-02-23T00:24:20.381Z,45.95
2018-02-23T00:25:09.427Z,43.67
2018-02-23T00:25:58.493Z,43.30
2018-02-23T00:26:47.572Z,43.25
2018-02-23T00:27:36.614Z,44.83
2018-02-23T00:28:25.684Z,49.30
2018-02-23T00:29:14.734Z,39.65
2018-02-23T00:30:03.804Z,40.03
2018-02-23T00:30:52.860Z,39.97
2018-02-23T00:31:41.899Z,39.58
2018-02-23T00:32:31.028Z,40.03
2018-02-23T00:33:20.071Z,42.03
2018-02-23T00:34:09.122Z,41.20
2018-02-23T00:34:58.168Z,42.75
2018-02-23T00:35:47.286Z,43.63
2018-02-23T00:36:36.318Z,45.22
2018-02-23T00:37:25.372Z,54.83
2018-02-23T00:38:14.495Z,52.70
2018-02-23T00:39:03.573Z,46.15
2018-02-23T00:39:52.610Z,52.15
2018-02-23T00:40:41.697Z,48.60
2018-02-23T00:41:30.738Z,43.33
2018-02-23T00:42:19.793Z,43.97
2018-02-23T00:43:08.895Z,39.22
2018-02-23T00:43:58.156Z,43.63
2018-02-23T00:44:48.176Z,39.03
2018-02-23T00:45:37.231Z,35.45
2018-02-23T00:46:26.282Z,46.05
2018-02-23T00:47:15.316Z,43.85
2018-02-23T00:48:04.432Z,42.40
2018-02-23T00:48:53.487Z,41.75
2018-02-23T00:49:42.535Z,42.72
2018-02-23T00:50:31.610Z,39.42
2018-02-23T00:51:20.694Z,37.78
2018-02-23T00:52:09.753Z,42.95
2018-02-23T00:52:58.802Z,39.13
2018-02-23T00:53:47.998Z,38.55
2018-02-23T00:54:37.046Z,39.97
2018-02-23T00:55:26.103Z,36.17
2018-02-23T00:56:15.146Z,36.03
2018-02-23T00:57:04.200Z,39.92
2018-02-23T00:57:53.246Z,36.47
2018-02-23T00:58:42.303Z,37.60
2018-02-23T00:59:31.564Z,39.25
2018-02-23T01:00:20.647Z,39.15
2018-02-23T01:01:09.726Z,38.70
2018-02-23T01:01:58.766Z,38.92
2018-02-23T01:02:47.801Z,36.88
2018-02-23T01:03:36.834Z,36.90
2018-02-23T01:04:25.890Z,34.47
2018-02-23T01:05:14.934Z,34.53
2018-02-23T01:06:04.029Z,35.55
2018-02-23T01:06:53.076Z,33.75
2018-02-23T01:07:42.130Z,32.70
2018-02-23T01:08:31.163Z,31.98
2018-02-23T01:09:20.222Z,32.75
2018-02-23T01:10:09.263Z,35.00
2018-02-23T01:10:58.312Z,34.53
2018-02-23T01:11:47.415Z,32.67
2018-02-23T01:12:36.474Z,31.42
2018-02-23T01:13:25.556Z,37.53
2018-02-23T01:14:14.635Z,31.45
2018-02-23T01:15:03.814Z,36.10
2018-02-23T01:15:52.860Z,36.10
2018-02-23T01:16:41.902Z,34.00
2018-02-23T01:17:30.965Z,32.63
2018-02-23T01:18:20.046Z,36.78
2018-02-23T01:19:09.097Z,32.75
2018-02-23T01:19:58.175Z,34.88
2018-02-23T01:20:47.266Z,31.17
2018-02-23T01:21:36.324Z,36.78
2018-02-23T01:22:25.782Z,34.33
2018-02-23T01:23:14.821Z,34.25
2018-02-23T01:24:03.857Z,33.38
2018-02-23T01:24:52.920Z,33.30
2018-02-23T01:25:41.988Z,33.25
2018-02-23T01:26:34.110Z,34.88
2018-02-23T01:27:23.139Z,33.67
2018-02-23T01:28:12.192Z,30.05
2018-02-23T01:29:01.239Z,35.55
2018-02-23T01:29:50.286Z,35.33
2018-02-23T01:30:40.262Z,32.45
2018-02-23T01:31:29.312Z,33.55
2018-02-23T01:32:18.408Z,36.72
2018-02-23T01:33:07.510Z,31.87
2018-02-23T01:33:56.599Z,37.85
2018-02-23T01:34:45.674Z,37.13
2018-02-23T01:35:34.844Z,34.00
2018-02-23T01:36:23.891Z,38.15
2018-02-23T01:37:12.935Z,35.78
2018-02-23T01:38:01.988Z,33.25
2018-02-23T01:38:51.026Z,33.67
2018-02-23T01:39:40.062Z,35.58
2018-02-23T01:40:29.109Z,35.28
2018-02-23T01:41:18.219Z,35.58
2018-02-23T01:42:07.267Z,34.95
2018-02-23T01:42:56.316Z,35.58
2018-02-23T01:43:45.371Z,35.53
2018-02-23T01:44:34.420Z,36.05
2018-02-23T01:45:23.470Z,34.20
2018-02-23T01:46:12.526Z,32.80
2018-02-23T01:47:01.624Z,33.08
2018-02-23T01:47:50.687Z,34.25
2018-02-23T01:48:39.740Z,35.35
2018-02-23T01:49:28.779Z,31.83
2018-02-23T01:50:17.811Z,37.63
2018-02-23T01:51:06.851Z,33.78
2018-02-23T01:51:55.898Z,35.97
2018-02-23T01:52:45.214Z,30.12
2018-02-23T01:53:34.259Z,35.80
2018-02-23T01:54:23.309Z,32.65
2018-02-23T01:55:12.346Z,33.90
2018-02-23T01:56:01.448Z,33.45
2018-02-23T01:56:50.516Z,29.20
2018-02-23T01:57:39.616Z,33.35
2018-02-23T01:58:28.685Z,29.65
2018-02-23T01:59:17.772Z,31.75
2018-02-23T02:00:06.843Z,32.40
2018-02-23T02:00:55.925Z,30.62
2018-02-23T02:01:45.094Z,34.83
2018-02-23T02:02:34.140Z,34.88
2018-02-23T02:03:23.205Z,34.63
2018-02-23T02:04:12.247Z,34.75
2018-02-23T02:05:01.288Z,34.80
2018-02-23T02:05:50.333Z,34.28
2018-02-23T02:06:39.405Z,36.47
2018-02-23T02:07:28.497Z,33.90
2018-02-23T02:08:17.549Z,33.92
2018-02-23T02:09:06.616Z,40.92
2018-02-23T02:09:55.663Z,33.03
2018-02-23T02:10:44.712Z,34.92
2018-02-23T02:11:33.782Z,30.48
2018-02-23T02:12:22.828Z,38.92
2018-02-23T02:13:12.206Z,31.12
2018-02-23T02:14:01.245Z,30.25
2018-02-23T02:14:50.305Z,32.97
2018-02-23T02:15:39.387Z,34.60
2018-02-23T02:16:28.427Z,31.27
2018-02-23T02:17:17.490Z,30.00
2018-02-23T02:18:06.538Z,33.17
2018-02-23T02:18:55.598Z,33.60
2018-02-23T02:19:44.654Z,36.63
2018-02-23T02:20:33.732Z,35.58
2018-02-23T02:21:22.887Z,30.40
2018-02-23T02:22:11.981Z,30.95
2018-02-23T02:23:01.035Z,28.45
2018-02-23T02:23:50.084Z,34.15
2018-02-23T02:24:39.137Z,30.88
2018-02-23T02:25:28.184Z,31.92
2018-02-23T02:26:17.247Z,32.78
2018-02-23T02:27:06.372Z,32.72
2018-02-23T02:27:55.432Z,30.00
2018-02-23T02:28:44.489Z,33.42
2018-02-23T02:29:33.532Z,34.10
2018-02-23T02:30:25.104Z,29.85
2018-02-23T02:31:14.152Z,32.85
2018-02-23T02:32:03.192Z,28.48
2018-02-23T02:32:52.466Z,33.13
2018-02-23T02:33:41.523Z,30.08
2018-02-23T02:34:30.630Z,29.98
2018-02-23T02:35:19.682Z,27.08
2018-02-23T02:36:08.751Z,31.20
2018-02-23T02:36:57.801Z,30.77
2018-02-23T02:37:46.849Z,28.87
2018-02-23T02:38:35.938Z,28.30
2018-02-23T02:39:24.989Z,32.10
2018-02-23T02:40:14.106Z,30.62
2018-02-23T02:41:03.176Z,31.35
2018-02-23T02:41:52.243Z,30.33
2018-02-23T02:42:41.364Z,31.42
2018-02-23T02:43:30.413Z,30.75
2018-02-23T02:44:19.530Z,31.00
2018-02-23T02:45:08.585Z,27.50
2018-02-23T02:45:57.638Z,30.95
2018-02-23T02:46:46.717Z,31.02
2018-02-23T02:47:35.783Z,33.67
2018-02-23T02:48:25.190Z,34.13
2018-02-23T02:49:14.236Z,29.98
2018-02-23T02:50:03.293Z,34.10
2018-02-23T02:50:52.351Z,29.12
2018-02-23T02:51:41.411Z,30.23
2018-02-23T02:52:30.541Z,25.15
2018-02-23T02:53:19.602Z,31.23
2018-02-23T02:54:08.657Z,30.85
2018-02-23T02:54:57.704Z,31.12
2018-02-23T02:55:46.749Z,30.33
2018-02-23T02:56:35.794Z,31.40
2018-02-23T02:57:24.840Z,34.35
2018-02-23T02:58:13.969Z,25.37
2018-02-23T02:59:03.017Z,26.70
2018-02-23T02:59:52.074Z,24.75
2018-02-23T03:00:41.112Z,24.27
2018-02-23T03:01:30.165Z,24.85
2018-02-23T03:02:19.242Z,23.92
2018-02-23T03:03:08.294Z,23.52
2018-02-23T03:03:57.581Z,24.08
2018-02-23T03:04:46.631Z,22.60
2018-02-23T03:05:35.729Z,25.00
2018-02-23T03:06:24.738Z,23.55
2018-02-23T03:07:13.797Z,22.52
2018-02-23T03:08:02.854Z,23.10
2018-02-23T03:08:51.915Z,24.20
2018-02-23T03:09:41.029Z,20.80
2018-02-23T03:10:30.089Z,25.27
2018-02-23T03:11:19.129Z,22.37
2018-02-23T03:12:08.172Z,24.75
2018-02-23T03:12:57.229Z,20.92
2018-02-23T03:13:46.365Z,20.75
2018-02-23T03:14:38.109Z,24.48
2018-02-23T03:15:27.152Z,26.00
2018-02-23T03:16:16.202Z,26.58
2018-02-23T03:17:05.251Z,22.40
2018-02-23T03:17:54.306Z,23.10
2018-02-23T03:18:43.360Z,23.62
2018-02-23T03:19:32.705Z,21.48
2018-02-23T03:20:21.745Z,22.42
2018-02-23T03:21:10.788Z,22.87
2018-02-23T03:21:59.835Z,22.67
2018-02-23T03:22:48.931Z,21.87
2018-02-23T03:23:38.008Z,22.92
2018-02-23T03:24:27.077Z,24.80
2018-02-23T03:25:16.132Z,23.92
2018-02-23T03:26:05.189Z,22.27
2018-02-23T03:26:54.236Z,28.27
2018-02-23T03:27:43.289Z,28.87
2018-02-23T03:28:32.390Z,27.75
2018-02-23T03:29:21.441Z,25.30
2018-02-23T03:30:10.498Z,21.05
2018-02-23T03:31:01.485Z,22.80
2018-02-23T03:31:50.837Z,21.40
2018-02-23T03:32:39.933Z,24.63
2018-02-23T03:33:28.985Z,24.95
2018-02-23T03:34:18.130Z,25.20
2018-02-23T03:35:07.173Z,26.40
2018-02-23T03:35:56.219Z,27.42
2018-02-23T03:36:45.259Z,25.48
2018-02-23T03:37:34.314Z,26.00
2018-02-23T03:38:23.374Z,22.58
2018-02-23T03:39:12.420Z,25.17
2018-02-23T03:40:01.491Z,28.42
2018-02-23T03:40:50.550Z,23.23
2018-02-23T03:41:39.636Z,28.17
2018-02-23T03:42:28.709Z,24.58
2018-02-23T03:43:17.756Z,25.98
2018-02-23T03:44:06.798Z,28.25
2018-02-23T03:44:56.920Z,28.60
2018-02-23T03:45:46.008Z,26.48
2018-02-23T03:46:35.060Z,26.62
2018-02-23T03:47:24.146Z,26.37
2018-02-23T03:48:13.191Z,25.95
2018-02-23T03:49:02.240Z,24.77
2018-02-23T03:49:51.284Z,27.25
2018-02-23T03:50:40.322Z,28.30
2018-02-23T03:51:29.539Z,26.10
2018-02-23T03:52:18.634Z,27.08
2018-02-23T03:53:07.666Z,27.27
2018-02-23T03:53:56.716Z,28.55
2018-02-23T03:54:45.780Z,28.25
2018-02-23T03:55:34.831Z,35.20
2018-02-23T03:56:23.867Z,32.40
2018-02-23T03:57:13.025Z,40.50
2018-02-23T03:58:02.084Z,64.97
2018-02-23T03:58:51.145Z,44.60
2018-02-23T03:59:40.191Z,44.95
2018-02-23T04:00:29.234Z,46.75
2018-02-23T04:01:18.709Z,39.85
2018-02-23T04:02:07.761Z,43.10
2018-02-23T04:02:56.838Z,52.17
2018-02-23T04:03:45.888Z,55.17
2018-02-23T04:04:34.920Z,50.10
2018-02-23T04:05:23.961Z,60.58
2018-02-23T04:06:13.013Z,59.83
2018-02-23T04:07:02.066Z,55.10
2018-02-23T04:07:51.107Z,55.78
2018-02-23T04:08:40.386Z,69.60
2018-02-23T04:09:29.444Z,62.50
2018-02-23T04:10:18.493Z,67.87
2018-02-23T04:11:07.550Z,57.78
2018-02-23T04:11:56.615Z,61.37
2018-02-23T04:12:45.654Z,49.47
2018-02-23T04:13:34.696Z,45.22
2018-02-23T04:14:23.755Z,31.20
2018-02-23T04:15:12.809Z,36.60
2018-02-23T04:16:01.843Z,33.70
2018-02-23T04:16:50.899Z,30.35
2018-02-23T04:17:39.995Z,29.35
2018-02-23T04:18:29.051Z,30.98
2018-02-23T04:19:18.129Z,34.70
2018-02-23T04:20:07.167Z,38.40
2018-02-23T04:20:56.299Z,39.40
2018-02-23T04:21:45.351Z,38.83
2018-02-23T04:22:34.554Z,37.72
2018-02-23T04:23:23.592Z,43.78
2018-02-23T04:24:12.646Z,39.63
2018-02-23T04:25:01.693Z,29.90
2018-02-23T04:25:50.736Z,32.60
2018-02-23T04:26:39.855Z,28.65
2018-02-23T04:27:28.907Z,28.27
2018-02-23T04:28:17.951Z,29.00
2018-02-23T04:29:06.993Z,28.48
2018-02-23T04:29:56.036Z,68.70
2018-02-23T04:30:45.093Z,77.10
2018-02-23T04:31:34.181Z,81.57
2018-02-23T04:32:23.683Z,69.10
2018-02-23T04:33:12.714Z,72.00
2018-02-23T04:34:01.746Z,71.90
2018-02-23T04:34:50.860Z,75.75
2018-02-23T04:35:39.928Z,70.43
2018-02-23T04:36:28.970Z,64.95
2018-02-23T04:37:18.012Z,62.60
2018-02-23T04:38:07.077Z,60.55
2018-02-23T04:38:56.218Z,57.90
2018-02-23T04:39:45.284Z,55.08
2018-02-23T04:40:34.362Z,50.40
2018-02-23T04:41:23.424Z,46.25
2018-02-23T04:42:12.475Z,41.67
2018-02-23T04:43:01.503Z,38.45
2018-02-23T04:43:50.563Z,33.72
2018-02-23T04:44:39.654Z,34.90
2018-02-23T04:45:28.695Z,35.90
2018-02-23T04:46:17.748Z,30.23
2018-02-23T04:47:06.927Z,32.78
2018-02-23T04:47:55.969Z,32.92
2018-02-23T04:48:45.036Z,34.40
2018-02-23T04:49:34.242Z,37.63
2018-02-23T04:50:23.320Z,40.05
2018-02-23T04:51:12.374Z,110.65
2018-02-23T04:52:01.425Z,176.25
2018-02-23T04:52:50.474Z,138.32
2018-02-23T04:53:39.814Z,43.30
2018-02-23T04:54:28.872Z,48.25
2018-02-23T04:55:18.280Z,48.72
2018-02-23T04:56:07.377Z,40.67
2018-02-23T04:56:56.462Z,34.10
2018-02-23T04:57:45.513Z,37.15
2018-02-23T04:58:34.551Z,43.13
2018-02-23T04:59:23.604Z,37.13
2018-02-23T05:00:12.697Z,37.42
2018-02-23T05:01:01.803Z,34.40
2018-02-23T05:01:50.860Z,40.08
2018-02-23T05:02:39.932Z,33.55
2018-02-23T05:03:31.970Z,37.25
2018-02-23T05:04:21.006Z,32.40
2018-02-23T05:05:10.143Z,35.00
2018-02-23T05:05:59.183Z,35.28
2018-02-23T05:06:48.225Z,31.85
2018-02-23T05:07:37.277Z,31.58
2018-02-23T05:08:26.358Z,32.92
2018-02-23T05:09:15.405Z,41.65
2018-02-23T05:10:04.506Z,40.40
2018-02-23T05:10:53.561Z,40.63
2018-02-23T05:11:42.798Z,40.05
2018-02-23T05:12:31.856Z,37.55
2018-02-23T05:13:20.917Z,39.80
2018-02-23T05:14:09.963Z,34.95
2018-02-23T05:14:59.006Z,34.10
2018-02-23T05:15:48.250Z,36.15
2018-02-23T05:16:37.303Z,38.55
2018-02-23T05:17:26.349Z,36.47
2018-02-23T05:18:15.484Z,37.88
2018-02-23T05:19:04.642Z,36.88
2018-02-23T05:19:53.711Z,38.63
2018-02-23T05:20:42.784Z,36.45
2018-02-23T05:21:32.145Z,38.45
2018-02-23T05:22:21.203Z,39.05
2018-02-23T05:23:10.258Z,40.63
2018-02-23T05:23:59.340Z,46.67
2018-02-23T05:24:48.433Z,52.65
2018-02-23T05:25:37.484Z,65.30
2018-02-23T05:26:26.547Z,69.90
2018-02-23T05:27:18.780Z,78.22
2018-02-23T05:28:08.006Z,85.00
2018-02-23T05:28:57.154Z,76.35
2018-02-23T05:29:46.232Z,75.57
2018-02-23T05:30:35.421Z,77.53
2018-02-23T05:31:24.659Z,82.60
2018-02-23T05:32:13.700Z,76.90
2018-02-23T05:34:29.739Z,74.68
2018-02-23T05:35:18.798Z,73.62
2018-02-23T05:36:07.852Z,102.32
2018-02-23T05:36:57.089Z,200.55
2018-02-23T05:37:46.129Z,187.77
2018-02-23T05:38:35.207Z,168.07
2018-02-23T05:39:24.278Z,149.77
2018-02-23T05:40:13.344Z,136.60
2018-02-23T05:41:02.411Z,137.98
2018-02-23T05:41:51.509Z,127.90
2018-02-23T05:42:41.222Z,130.37
2018-02-23T05:43:30.300Z,130.15
2018-02-23T05:44:19.833Z,113.53
2018-02-23T05:45:08.911Z,114.37
2018-02-23T05:45:57.955Z,108.95
2018-02-23T05:46:47.049Z,99.03
2018-02-23T05:47:36.130Z,106.85
2018-02-23T05:48:25.280Z,93.68
2018-02-23T05:49:14.344Z,86.70
2018-02-23T05:50:03.415Z,86.93
2018-02-23T05:50:52.475Z,84.65
2018-02-23T05:51:41.609Z,79.72
2018-02-23T05:52:30.670Z,78.97
2018-02-23T05:53:19.724Z,81.97
2018-02-23T05:54:10.168Z,91.53
2018-02-23T05:54:59.225Z,90.65
2018-02-23T05:55:48.314Z,88.05
2018-02-23T05:56:37.384Z,89.37
2018-02-23T05:57:26.437Z,97.57
2018-02-23T05:58:15.481Z,93.40
2018-02-23T05:59:04.560Z,101.78
2018-02-23T05:59:53.612Z,106.35
2018-02-23T06:00:42.662Z,101.38
2018-02-23T06:01:31.741Z,98.07
2018-02-23T06:02:20.806Z,105.55
2018-02-23T06:03:09.867Z,105.65
2018-02-23T06:03:58.913Z,103.47
2018-02-23T06:04:47.972Z,95.10
2018-02-23T06:05:37.040Z,94.10
2018-02-23T06:06:26.071Z,93.15
2018-02-23T06:07:15.354Z,88.15
2018-02-23T06:08:04.392Z,93.07
2018-02-23T06:08:53.422Z,92.85
2018-02-23T06:09:42.471Z,86.30
2018-02-23T06:10:31.521Z,91.78
2018-02-23T06:11:20.584Z,84.10
2018-02-23T06:12:09.694Z,78.05
2018-02-23T06:12:59.569Z,81.97
2018-02-23T06:13:48.653Z,80.12
2018-02-23T06:14:37.772Z,81.53
2018-02-23T06:16:47.400Z,84.07
2018-02-23T06:17:41.924Z,99.07
2018-02-23T06:18:36.524Z,108.55
2018-02-23T06:19:31.019Z,131.25
2018-02-23T06:20:25.555Z,148.13
2018-02-23T06:21:14.680Z,157.95
2018-02-23T06:22:03.741Z,152.23
2018-02-23T06:22:52.799Z,167.55
2018-02-23T06:23:41.849Z,172.10
2018-02-23T06:24:30.906Z,151.35
2018-02-23T06:25:19.968Z,168.62
2018-02-23T06:26:09.037Z,158.80
2018-02-23T06:26:58.150Z,152.65
2018-02-23T06:27:47.203Z,145.73
2018-02-23T06:28:36.271Z,135.65
2018-02-23T06:29:25.316Z,142.35
2018-02-23T06:30:14.373Z,126.12
2018-02-23T06:31:03.435Z,126.47
2018-02-23T06:31:52.492Z,137.30
2018-02-23T06:32:41.628Z,105.53
2018-02-23T06:33:30.698Z,97.80
2018-02-23T06:34:19.766Z,93.90
2018-02-23T06:35:08.824Z,98.62
2018-02-23T06:35:57.877Z,90.40
2018-02-23T06:36:46.929Z,90.12
2018-02-23T06:37:35.991Z,94.70
2018-02-23T06:38:25.344Z,86.37
2018-02-23T06:39:14.402Z,88.62
2018-02-23T06:40:03.490Z,87.47
2018-02-23T06:40:52.612Z,91.60
2018-02-23T06:41:41.688Z,85.45
2018-02-23T06:42:30.778Z,79.70
2018-02-23T06:43:19.807Z,77.43
2018-02-23T06:44:08.853Z,71.28
2018-02-23T06:44:57.898Z,62.35
2018-02-23T06:45:46.944Z,62.13
2018-02-23T06:46:36.009Z,62.67
2018-02-23T06:47:25.077Z,120.62
2018-02-23T06:48:14.224Z,117.28
2018-02-23T06:49:03.267Z,108.22
2018-02-23T06:49:52.332Z,128.23
2018-02-23T06:50:41.386Z,113.22
2018-02-23T06:51:30.441Z,107.03
2018-02-23T06:52:19.492Z,93.85
2018-02-23T06:53:08.539Z,104.43
2018-02-23T06:53:57.824Z,117.95
2018-02-23T06:54:46.885Z,105.97
2018-02-23T06:55:35.939Z,98.00
2018-02-23T06:56:24.987Z,92.35
2018-02-23T06:57:14.071Z,96.53
2018-02-23T06:58:03.115Z,90.20
2018-02-23T06:58:52.155Z,86.75
2018-02-23T06:59:41.197Z,96.25
2018-02-23T07:00:30.312Z,91.93
2018-02-23T07:01:19.347Z,94.78
2018-02-23T07:02:08.398Z,94.82
2018-02-23T07:02:57.513Z,99.43
2018-02-23T07:03:46.557Z,104.40
2018-02-23T07:04:35.655Z,103.50
2018-02-23T07:05:24.745Z,111.05
2018-02-23T07:06:13.806Z,100.75
2018-02-23T07:07:02.846Z,97.60
2018-02-23T07:07:51.959Z,127.43
2018-02-23T07:08:41.064Z,116.37
2018-02-23T07:09:30.145Z,138.27
2018-02-23T07:10:19.196Z,123.03
2018-02-23T07:11:08.309Z,110.25
2018-02-23T07:11:57.386Z,120.00
2018-02-23T07:12:46.666Z,103.55
2018-02-23T07:13:35.711Z,96.12
2018-02-23T07:14:24.778Z,79.15
2018-02-23T07:15:13.951Z,94.57
2018-02-23T07:16:03.022Z,69.87
2018-02-23T07:16:52.059Z,70.07
2018-02-23T07:17:41.110Z,73.72
2018-02-23T07:18:30.165Z,210.35
2018-02-23T07:19:20.155Z,61.65
2018-02-23T07:20:09.220Z,44.33
2018-02-23T07:20:58.328Z,41.78
2018-02-23T07:21:47.387Z,41.28
2018-02-23T07:22:36.473Z,52.20
2018-02-23T07:23:25.525Z,49.72
2018-02-23T07:24:14.585Z,46.97
2018-02-23T07:25:03.635Z,55.20
2018-02-23T07:25:52.706Z,59.30
2018-02-23T07:26:41.829Z,57.03
2018-02-23T07:27:30.884Z,85.65
2018-02-23T07:28:19.930Z,62.45
2018-02-23T07:29:08.996Z,76.57
2018-02-23T07:29:58.059Z,84.05
2018-02-23T07:30:47.112Z,69.00
2018-02-23T07:31:36.688Z,81.53
2018-02-23T07:32:25.802Z,215.50
2018-02-23T07:33:14.864Z,201.70
2018-02-23T07:34:03.958Z,227.82
2018-02-23T07:34:53.014Z,195.85
2018-02-23T07:35:42.060Z,103.03
2018-02-23T07:36:31.182Z,104.82
2018-02-23T07:37:20.240Z,97.10
2018-02-23T07:38:09.291Z,89.25
2018-02-23T07:38:58.408Z,78.70
2018-02-23T07:39:47.451Z,75.87
2018-02-23T07:40:36.502Z,53.97
2018-02-23T07:41:25.553Z,82.47
2018-02-23T07:42:14.601Z,69.28
2018-02-23T07:43:03.652Z,44.42
2018-02-23T07:43:52.692Z,36.85
2018-02-23T07:44:41.798Z,39.60
2018-02-23T07:45:30.864Z,34.20
2018-02-23T07:46:21.881Z,230.40
2018-02-23T07:47:10.938Z,118.03
2018-02-23T07:48:00.004Z,53.30
2018-02-23T07:48:49.045Z,60.05
2018-02-23T07:49:38.194Z,81.12
2018-02-23T07:50:27.268Z,73.47
2018-02-23T07:51:16.345Z,49.13
2018-02-23T07:52:05.398Z,41.20
2018-02-23T07:52:54.477Z,87.28
2018-02-23T07:53:43.542Z,196.48
2018-02-23T07:54:32.592Z,347.90
2018-02-23T07:55:21.696Z,263.90
2018-02-23T07:56:10.800Z,274.92
2018-02-23T07:56:59.877Z,337.65
2018-02-23T07:57:48.934Z,294.27
2018-02-23T07:58:38.017Z,305.45
2018-02-23T07:59:27.120Z,163.68
2018-02-23T08:00:16.204Z,192.62
2018-02-23T08:01:06.086Z,143.57
2018-02-23T08:01:55.281Z,80.93
2018-02-23T08:02:44.371Z,118.25
2018-02-23T08:03:33.435Z,97.65
2018-02-23T08:04:22.498Z,106.32
2018-02-23T08:05:11.569Z,65.70
2018-02-23T08:06:00.618Z,82.45
2018-02-23T08:06:49.659Z,79.35
2018-02-23T08:07:38.720Z,85.45
2018-02-23T08:08:27.830Z,61.90
2018-02-23T08:09:16.900Z,63.38
2018-02-23T08:10:05.964Z,61.40
2018-02-23T08:10:55.102Z,58.80
2018-02-23T08:11:44.156Z,40.40
2018-02-23T08:12:33.268Z,64.20
2018-02-23T08:13:22.316Z,51.90
2018-02-23T08:14:11.374Z,64.80
2018-02-23T08:15:00.474Z,53.30
2018-02-23T08:15:49.536Z,47.20
2018-02-23T08:16:38.628Z,48.05
2018-02-23T08:17:27.696Z,51.05
2018-02-23T08:18:16.736Z,66.72
2018-02-23T08:19:05.811Z,82.97
2018-02-23T08:19:54.864Z,70.60
2018-02-23T08:20:43.908Z,66.20
2018-02-23T08:21:32.957Z,66.70
2018-02-23T08:22:25.099Z,80.45
2018-02-23T08:23:14.190Z,64.12
2018-02-23T08:24:03.240Z,60.03
2018-02-23T08:24:52.286Z,56.53
2018-02-23T08:25:41.329Z,68.97
2018-02-23T08:26:30.388Z,64.85
2018-02-23T08:27:19.437Z,57.33
2018-02-23T08:28:10.268Z,76.00
2018-02-23T08:28:59.312Z,51.08
2018-02-23T08:29:48.361Z,60.17
2018-02-23T08:30:37.402Z,56.92
2018-02-23T08:31:26.454Z,60.90
2018-02-23T08:32:15.504Z,65.68
2018-02-23T08:33:04.574Z,68.05
2018-02-23T08:33:53.667Z,68.72
2018-02-23T08:34:42.728Z,91.32
2018-02-23T08:35:31.812Z,59.65
2018-02-23T08:36:20.852Z,66.10
2018-02-23T08:37:09.890Z,81.93
2018-02-23T08:37:58.960Z,77.22
2018-02-23T08:38:48.004Z,67.40
2018-02-23T08:39:37.063Z,79.22
2018-02-23T08:40:26.120Z,55.45
2018-02-23T08:41:15.400Z,56.13
2018-02-23T08:42:04.445Z,50.53
2018-02-23T08:42:53.521Z,68.37
2018-02-23T08:43:42.560Z,69.87
2018-02-23T08:44:31.834Z,90.32
2018-02-23T08:45:20.887Z,91.10
2018-02-23T08:46:09.938Z,73.18
2018-02-23T08:46:58.993Z,59.05
2018-02-23T08:47:48.074Z,56.60
2018-02-23T08:48:37.166Z,85.22
2018-02-23T08:49:26.259Z,75.65
2018-02-23T08:50:15.399Z,51.95
2018-02-23T08:51:04.462Z,78.53
2018-02-23T08:51:53.556Z,100.15
2018-02-23T08:52:42.626Z,73.15
2018-02-23T08:53:31.662Z,49.78
2018-02-23T08:54:20.694Z,95.00
2018-02-23T08:55:09.752Z,53.87
2018-02-23T08:55:58.840Z,31.48
2018-02-23T08:56:47.876Z,43.55
2018-02-23T08:57:36.912Z,46.88
2018-02-23T08:58:25.964Z,40.85
2018-02-23T08:59:15.034Z,42.88
2018-02-23T09:00:04.114Z,38.60
2018-02-23T09:00:53.191Z,31.15
2018-02-23T09:01:42.540Z,30.62
2018-02-23T09:02:31.604Z,28.27
2018-02-23T09:03:20.659Z,24.60
2018-02-23T09:04:09.702Z,27.80
2018-02-23T09:04:58.876Z,24.05
2018-02-23T09:05:47.933Z,29.87
2018-02-23T09:06:36.989Z,31.60
2018-02-23T09:07:26.037Z,40.12
2018-02-23T09:08:15.085Z,29.37
2018-02-23T09:09:04.172Z,33.50
2018-02-23T09:09:53.288Z,27.20
2018-02-23T09:10:42.404Z,24.77
2018-02-23T09:11:31.454Z,25.85
2018-02-23T09:12:20.511Z,28.00
2018-02-23T09:13:09.570Z,30.67
2018-02-23T09:13:58.628Z,34.65
2018-02-23T09:14:47.685Z,27.50
2018-02-23T09:15:36.734Z,25.15
2018-02-23T09:16:25.836Z,26.87
2018-02-23T09:17:15.086Z,26.95
2018-02-23T09:18:04.167Z,22.62
2018-02-23T09:18:53.226Z,18.12
2018-02-23T09:19:42.290Z,22.55
2018-02-23T09:20:31.406Z,22.08
2018-02-23T09:21:20.687Z,31.12
2018-02-23T09:22:09.795Z,29.15
2018-02-23T09:22:58.908Z,30.25
2018-02-23T09:23:47.966Z,46.37
2018-02-23T09:24:37.062Z,40.30
2018-02-23T09:25:26.132Z,47.95
2018-02-23T09:26:15.207Z,42.35
2018-02-23T09:27:04.261Z,84.78
2018-02-23T09:27:53.296Z,43.08
2018-02-23T09:28:42.427Z,27.95
2018-02-23T09:29:31.468Z,26.45
2018-02-23T09:30:20.517Z,26.33
2018-02-23T09:31:09.562Z,33.58
2018-02-23T09:31:58.603Z,27.52
2018-02-23T09:32:47.686Z,26.12
2018-02-23T09:33:48.455Z,24.15
2018-02-23T09:34:38.332Z,22.55
2018-02-23T09:35:27.372Z,27.30
2018-02-23T09:36:16.441Z,26.48
2018-02-23T09:37:05.484Z,27.65
2018-02-23T09:37:54.525Z,25.00
2018-02-23T09:38:43.562Z,29.50
2018-02-23T09:39:32.633Z,29.55
2018-02-23T09:40:21.686Z,27.00
2018-02-23T09:41:10.735Z,26.00
2018-02-23T09:41:59.910Z,29.00
2018-02-23T09:42:49.000Z,50.88
2018-02-23T09:43:38.040Z,60.20
2018-02-23T09:44:27.092Z,44.20
2018-02-23T09:45:16.337Z,95.07
2018-02-23T09:46:05.399Z,60.85
2018-02-23T09:46:54.451Z,37.25
2018-02-23T09:47:43.510Z,34.67
2018-02-23T09:48:32.563Z,33.75
2018-02-23T09:49:21.632Z,29.92
2018-02-23T09:50:10.695Z,25.70
2018-02-23T09:50:59.833Z,22.20
2018-02-23T09:51:48.885Z,36.35
2018-02-23T09:52:37.931Z,63.67
2018-02-23T09:53:26.984Z,74.97
2018-02-23T09:54:16.046Z,73.28
2018-02-23T09:55:05.097Z,53.63
2018-02-23T09:55:54.158Z,31.73
2018-02-23T09:56:43.443Z,41.88
2018-02-23T09:57:32.523Z,32.40
2018-02-23T09:58:21.577Z,26.87
2018-02-23T09:59:10.625Z,30.40
2018-02-23T09:59:59.669Z,37.15
2018-02-23T10:00:48.746Z,44.30
2018-02-23T10:01:37.813Z,47.80
2018-02-23T10:02:26.879Z,35.08
2018-02-23T10:03:16.025Z,41.92
2018-02-23T10:04:05.078Z,46.63
2018-02-23T10:04:54.179Z,32.17
2018-02-23T10:05:43.243Z,33.15
2018-02-23T10:06:32.337Z,31.85
2018-02-23T10:07:21.400Z,32.47
2018-02-23T10:08:10.454Z,27.20
2018-02-23T10:08:59.785Z,27.13
2018-02-23T10:09:48.841Z,29.73
2018-02-23T10:10:37.902Z,34.92
2018-02-23T10:11:26.950Z,34.25
2018-02-23T10:12:15.998Z,35.70
2018-02-23T10:13:05.077Z,21.87
2018-02-23T10:13:54.185Z,20.85
2018-02-23T10:14:43.252Z,29.95
2018-02-23T10:15:32.305Z,44.83
2018-02-23T10:16:21.367Z,34.63
2018-02-23T10:17:10.430Z,28.55
2018-02-23T10:17:59.481Z,42.00
2018-02-23T10:18:48.532Z,32.22
2018-02-23T10:19:37.686Z,32.78
2018-02-23T10:20:26.738Z,30.40
2018-02-23T10:21:15.792Z,33.38
2018-02-23T10:22:04.872Z,22.23
2018-02-23T10:22:53.921Z,25.40
2018-02-23T10:23:42.989Z,28.12
2018-02-23T10:24:32.031Z,29.67
2018-02-23T10:25:21.348Z,34.33
2018-02-23T10:26:10.401Z,32.45
2018-02-23T10:26:59.498Z,53.30
2018-02-23T10:27:48.543Z,52.75
2018-02-23T10:28:37.598Z,43.95
2018-02-23T10:29:26.661Z,39.00
2018-02-23T10:30:15.784Z,35.22
2018-02-23T10:31:04.842Z,35.25
2018-02-23T10:31:53.909Z,32.67
2018-02-23T10:32:42.992Z,49.25
2018-02-23T10:33:32.578Z,36.88
2018-02-23T10:34:21.653Z,37.25